sensor_id;sensor_type;location;lat;lon;timestamp;pressure;altitude;pressure_sealevel;temperature;humidity
5872;BME280;2962;51.312;7.378;2023-01-30T00:01:40;97639.94;;;0.18;100.00
5872;BME280;2962;51.312;7.378;2023-01-30T00:04:06;97624.59;;;0.23;100.00
5872;BME280;2962;51.312;7.378;2023-01-30T00:06:31;97601.38;;;0.33;100.00
5872;BME280;2962;51.312;7.378;2023-01-30T00:08:57;97620.44;;;0.31;100.00
5872;BME280;2962;51.312;7.378;2023-01-30T00:11:22;97606.03;;;0.27;100.00
5872;BME280;2962;51.312;7.378;2023-01-30T00:13:49;97610.41;;;0.37;100.00
5872;BME280;2962;51.312;7.378;2023-01-30T00:16:15;97604.13;;;0.41;100.00
5872;BME280;2962;51.312;7.378;2023-01-30T00:18:42;97615.16;;;0.40;100.00
5872;BME280;2962;51.312;7.378;2023-01-30T00:21:10;97618.53;;;0.45;100.00
5872;BME280;2962;51.312;7.378;2023-01-30T00:23:36;97615.56;;;0.47;100.00
5872;BME280;2962;51.312;7.378;2023-01-30T00:26:02;97605.63;;;0.47;100.00
5872;BME280;2962;51.312;7.378;2023-01-30T00:28:28;97615.06;;;0.59;100.00
5872;BME280;2962;51.312;7.378;2023-01-30T00:30:54;97597.88;;;0.60;100.00
5872;BME280;2962;51.312;7.378;2023-01-30T00:33:21;97589.84;;;0.60;100.00
5872;BME280;2962;51.312;7.378;2023-01-30T00:35:49;97602.53;;;0.68;100.00
5872;BME280;2962;51.312;7.378;2023-01-30T00:38:15;97590.50;;;0.79;100.00
5872;BME280;2962;51.312;7.378;2023-01-30T00:40:41;97606.91;;;0.78;100.00
5872;BME280;2962;51.312;7.378;2023-01-30T00:43:09;97600.13;;;0.80;100.00
5872;BME280;2962;51.312;7.378;2023-01-30T00:45:55;97583.94;;;0.85;100.00
5872;BME280;2962;51.312;7.378;2023-01-30T00:48:39;97585.59;;;0.95;100.00
5872;BME280;2962;51.312;7.378;2023-01-30T00:51:04;97561.59;;;0.76;100.00
5872;BME280;2962;51.312;7.378;2023-01-30T00:53:29;97587.41;;;0.86;100.00
5872;BME280;2962;51.312;7.378;2023-01-30T00:55:55;97571.53;;;0.89;100.00
5872;BME280;2962;51.312;7.378;2023-01-30T00:58:21;97581.22;;;0.99;100.00
5872;BME280;2962;51.312;7.378;2023-01-30T01:00:48;97549.16;;;0.94;100.00
5872;BME280;2962;51.312;7.378;2023-01-30T01:03:13;97551.63;;;0.90;100.00
5872;BME280;2962;51.312;7.378;2023-01-30T01:05:38;97582.81;;;1.00;100.00
5872;BME280;2962;51.312;7.378;2023-01-30T01:08:04;97538.63;;;0.97;100.00
5872;BME280;2962;51.312;7.378;2023-01-30T01:10:30;97555.28;;;1.08;100.00
5872;BME280;2962;51.312;7.378;2023-01-30T01:12:56;97555.69;;;1.02;100.00
5872;BME280;2962;51.312;7.378;2023-01-30T01:15:23;97550.56;;;1.14;100.00
5872;BME280;2962;51.312;7.378;2023-01-30T01:17:50;97570.66;;;1.16;100.00
5872;BME280;2962;51.312;7.378;2023-01-30T01:20:17;97549.00;;;1.13;100.00
5872;BME280;2962;51.312;7.378;2023-01-30T01:22:42;97543.03;;;1.16;100.00
5872;BME280;2962;51.312;7.378;2023-01-30T01:25:08;97545.38;;;1.17;100.00
5872;BME280;2962;51.312;7.378;2023-01-30T01:27:34;97514.25;;;1.08;100.00
5872;BME280;2962;51.312;7.378;2023-01-30T01:30:00;97514.47;;;1.20;100.00
5872;BME280;2962;51.312;7.378;2023-01-30T01:32:25;97519.09;;;1.28;100.00
5872;BME280;2962;51.312;7.378;2023-01-30T01:34:50;97505.56;;;1.33;100.00
5872;BME280;2962;51.312;7.378;2023-01-30T01:37:16;97515.19;;;1.34;100.00
5872;BME280;2962;51.312;7.378;2023-01-30T01:39:41;97524.22;;;1.38;100.00
5872;BME280;2962;51.312;7.378;2023-01-30T01:42:28;97516.09;;;1.30;100.00
5872;BME280;2962;51.312;7.378;2023-01-30T01:45:01;97515.31;;;1.29;100.00
5872;BME280;2962;51.312;7.378;2023-01-30T01:47:28;97504.28;;;1.31;100.00
5872;BME280;2962;51.312;7.378;2023-01-30T01:49:54;97506.53;;;1.37;100.00
5872;BME280;2962;51.312;7.378;2023-01-30T01:52:20;97509.47;;;1.27;100.00
5872;BME280;2962;51.312;7.378;2023-01-30T01:54:51;97514.00;;;1.49;100.00
5872;BME280;2962;51.312;7.378;2023-01-30T01:57:24;97500.72;;;1.44;100.00
5872;BME280;2962;51.312;7.378;2023-01-30T02:02:22;97489.81;;;1.40;100.00
5872;BME280;2962;51.312;7.378;2023-01-30T02:04:51;97483.34;;;1.41;100.00
5872;BME280;2962;51.312;7.378;2023-01-30T02:10:13;97466.47;;;1.50;100.00
5872;BME280;2962;51.312;7.378;2023-01-30T02:23:18;97470.38;;;1.66;100.00
5872;BME280;2962;51.312;7.378;2023-01-30T02:36:53;97416.00;;;1.69;100.00
5872;BME280;2962;51.312;7.378;2023-01-30T02:44:57;97442.44;;;1.84;100.00
5872;BME280;2962;51.312;7.378;2023-01-30T02:47:58;97431.09;;;1.87;100.00
5872;BME280;2962;51.312;7.378;2023-01-30T02:50:28;97428.56;;;1.82;100.00
5872;BME280;2962;51.312;7.378;2023-01-30T02:52:56;97399.00;;;1.82;100.00
5872;BME280;2962;51.312;7.378;2023-01-30T02:55:24;97390.00;;;1.78;100.00
5872;BME280;2962;51.312;7.378;2023-01-30T02:57:50;97418.44;;;1.88;100.00
5872;BME280;2962;51.312;7.378;2023-01-30T03:00:21;97398.56;;;1.89;100.00
5872;BME280;2962;51.312;7.378;2023-01-30T03:11:24;97389.22;;;1.86;100.00
5872;BME280;2962;51.312;7.378;2023-01-30T03:13:57;97387.31;;;1.78;100.00
5872;BME280;2962;51.312;7.378;2023-01-30T03:16:37;97388.91;;;1.88;100.00
5872;BME280;2962;51.312;7.378;2023-01-30T03:19:05;97375.16;;;1.89;100.00
5872;BME280;2962;51.312;7.378;2023-01-30T03:21:33;97386.69;;;1.81;100.00
5872;BME280;2962;51.312;7.378;2023-01-30T03:23:58;97340.19;;;1.72;100.00
5872;BME280;2962;51.312;7.378;2023-01-30T03:26:28;97380.38;;;1.94;100.00
5872;BME280;2962;51.312;7.378;2023-01-30T03:28:54;97381.94;;;1.95;100.00
5872;BME280;2962;51.312;7.378;2023-01-30T03:31:20;97351.00;;;1.98;100.00
5872;BME280;2962;51.312;7.378;2023-01-30T03:33:45;97345.59;;;1.81;100.00
5872;BME280;2962;51.312;7.378;2023-01-30T03:36:11;97365.88;;;2.04;100.00
5872;BME280;2962;51.312;7.378;2023-01-30T03:38:36;97356.38;;;1.98;100.00
5872;BME280;2962;51.312;7.378;2023-01-30T03:41:02;97353.69;;;1.98;100.00
5872;BME280;2962;51.312;7.378;2023-01-30T03:43:28;97339.13;;;1.90;100.00
5872;BME280;2962;51.312;7.378;2023-01-30T03:45:53;97332.97;;;1.99;100.00
5872;BME280;2962;51.312;7.378;2023-01-30T03:48:19;97345.78;;;2.02;100.00
5872;BME280;2962;51.312;7.378;2023-01-30T03:50:44;97335.03;;;2.02;100.00
5872;BME280;2962;51.312;7.378;2023-01-30T03:53:09;97384.84;;;2.08;100.00
5872;BME280;2962;51.312;7.378;2023-01-30T03:55:35;97328.88;;;2.10;100.00
5872;BME280;2962;51.312;7.378;2023-01-30T03:58:00;97340.72;;;2.09;100.00
5872;BME280;2962;51.312;7.378;2023-01-30T04:00:26;97315.09;;;2.11;100.00
5872;BME280;2962;51.312;7.378;2023-01-30T04:02:51;97304.84;;;2.05;100.00
5872;BME280;2962;51.312;7.378;2023-01-30T04:05:18;97323.97;;;2.12;100.00
5872;BME280;2962;51.312;7.378;2023-01-30T04:07:44;97294.72;;;2.10;100.00
5872;BME280;2962;51.312;7.378;2023-01-30T04:10:09;97303.75;;;2.23;100.00
5872;BME280;2962;51.312;7.378;2023-01-30T04:12:35;97315.28;;;2.32;100.00
5872;BME280;2962;51.312;7.378;2023-01-30T04:15:00;97314.34;;;2.19;100.00
5872;BME280;2962;51.312;7.378;2023-01-30T04:17:26;97287.75;;;2.18;100.00
5872;BME280;2962;51.312;7.378;2023-01-30T04:19:51;97294.41;;;2.12;100.00
5872;BME280;2962;51.312;7.378;2023-01-30T04:22:16;97312.28;;;2.16;100.00
5872;BME280;2962;51.312;7.378;2023-01-30T04:24:41;97312.91;;;2.22;100.00
5872;BME280;2962;51.312;7.378;2023-01-30T04:27:07;97277.34;;;2.16;100.00
5872;BME280;2962;51.312;7.378;2023-01-30T04:29:33;97331.56;;;2.27;100.00
5872;BME280;2962;51.312;7.378;2023-01-30T04:31:58;97299.16;;;2.24;100.00
5872;BME280;2962;51.312;7.378;2023-01-30T04:34:24;97296.13;;;2.25;100.00
5872;BME280;2962;51.312;7.378;2023-01-30T04:36:49;97313.69;;;2.31;100.00
5872;BME280;2962;51.312;7.378;2023-01-30T04:39:14;97279.25;;;2.16;100.00
5872;BME280;2962;51.312;7.378;2023-01-30T04:41:39;97347.53;;;2.32;100.00
5872;BME280;2962;51.312;7.378;2023-01-30T04:44:05;97301.03;;;2.32;100.00
5872;BME280;2962;51.312;7.378;2023-01-30T04:46:30;97311.78;;;2.40;100.00
5872;BME280;2962;51.312;7.378;2023-01-30T04:48:55;97297.22;;;2.41;100.00
5872;BME280;2962;51.312;7.378;2023-01-30T04:51:21;97285.53;;;2.37;100.00
5872;BME280;2962;51.312;7.378;2023-01-30T04:53:46;97284.91;;;2.40;100.00
5872;BME280;2962;51.312;7.378;2023-01-30T04:56:11;97309.88;;;2.50;100.00
5872;BME280;2962;51.312;7.378;2023-01-30T04:58:37;97305.16;;;2.47;100.00
5872;BME280;2962;51.312;7.378;2023-01-30T05:03:49;97266.38;;;2.48;100.00
5872;BME280;2962;51.312;7.378;2023-01-30T05:06:14;97281.88;;;2.51;100.00
5872;BME280;2962;51.312;7.378;2023-01-30T05:08:39;97328.38;;;2.51;100.00
5872;BME280;2962;51.312;7.378;2023-01-30T05:11:05;97272.84;;;2.55;100.00
5872;BME280;2962;51.312;7.378;2023-01-30T05:13:30;97293.09;;;2.53;100.00
5872;BME280;2962;51.312;7.378;2023-01-30T05:15:55;97295.63;;;2.49;100.00
5872;BME280;2962;51.312;7.378;2023-01-30T05:18:20;97264.50;;;2.39;100.00
5872;BME280;2962;51.312;7.378;2023-01-30T05:20:46;97288.06;;;2.42;100.00
5872;BME280;2962;51.312;7.378;2023-01-30T05:23:11;97264.63;;;2.52;100.00
5872;BME280;2962;51.312;7.378;2023-01-30T05:25:36;97264.16;;;2.58;100.00
5872;BME280;2962;51.312;7.378;2023-01-30T05:28:02;97250.56;;;2.55;100.00
5872;BME280;2962;51.312;7.378;2023-01-30T05:30:27;97267.28;;;2.60;100.00
5872;BME280;2962;51.312;7.378;2023-01-30T05:32:52;97262.41;;;2.62;100.00
5872;BME280;2962;51.312;7.378;2023-01-30T05:35:17;97254.81;;;2.56;100.00
5872;BME280;2962;51.312;7.378;2023-01-30T05:37:43;97279.94;;;2.68;100.00
5872;BME280;2962;51.312;7.378;2023-01-30T05:40:08;97268.88;;;2.70;100.00
5872;BME280;2962;51.312;7.378;2023-01-30T05:42:34;97275.22;;;2.65;100.00
5872;BME280;2962;51.312;7.378;2023-01-30T05:44:59;97241.03;;;2.66;100.00
5872;BME280;2962;51.312;7.378;2023-01-30T05:47:24;97274.22;;;2.79;100.00
5872;BME280;2962;51.312;7.378;2023-01-30T05:49:50;97261.25;;;2.72;100.00
5872;BME280;2962;51.312;7.378;2023-01-30T05:52:15;97265.22;;;2.75;100.00
5872;BME280;2962;51.312;7.378;2023-01-30T05:54:40;97226.19;;;2.51;100.00
5872;BME280;2962;51.312;7.378;2023-01-30T05:57:05;97257.75;;;2.80;100.00
5872;BME280;2962;51.312;7.378;2023-01-30T05:59:31;97264.09;;;2.76;100.00
5872;BME280;2962;51.312;7.378;2023-01-30T06:01:56;97209.84;;;2.74;100.00
5872;BME280;2962;51.312;7.378;2023-01-30T06:04:21;97241.28;;;2.82;100.00
5872;BME280;2962;51.312;7.378;2023-01-30T06:06:48;97272.56;;;2.95;100.00
5872;BME280;2962;51.312;7.378;2023-01-30T06:09:13;97246.44;;;2.96;100.00
5872;BME280;2962;51.312;7.378;2023-01-30T06:11:39;97249.31;;;2.90;100.00
5872;BME280;2962;51.312;7.378;2023-01-30T06:14:04;97253.00;;;2.86;100.00
5872;BME280;2962;51.312;7.378;2023-01-30T06:16:29;97251.38;;;2.93;100.00
5872;BME280;2962;51.312;7.378;2023-01-30T06:18:54;97265.47;;;2.90;100.00
5872;BME280;2962;51.312;7.378;2023-01-30T06:21:20;97269.28;;;2.89;100.00
5872;BME280;2962;51.312;7.378;2023-01-30T06:23:45;97292.84;;;2.92;100.00
5872;BME280;2962;51.312;7.378;2023-01-30T06:26:10;97289.00;;;3.02;100.00
5872;BME280;2962;51.312;7.378;2023-01-30T06:28:36;97263.56;;;2.91;100.00
5872;BME280;2962;51.312;7.378;2023-01-30T06:31:01;97258.47;;;2.98;100.00
5872;BME280;2962;51.312;7.378;2023-01-30T06:33:26;97285.34;;;3.07;100.00
5872;BME280;2962;51.312;7.378;2023-01-30T06:35:52;97272.56;;;3.04;100.00
5872;BME280;2962;51.312;7.378;2023-01-30T06:38:18;97273.66;;;3.03;100.00
5872;BME280;2962;51.312;7.378;2023-01-30T06:40:46;97271.06;;;3.15;100.00
5872;BME280;2962;51.312;7.378;2023-01-30T06:43:11;97291.16;;;3.17;100.00
5872;BME280;2962;51.312;7.378;2023-01-30T06:45:37;97286.06;;;3.25;100.00
5872;BME280;2962;51.312;7.378;2023-01-30T06:48:03;97279.41;;;3.31;100.00
5872;BME280;2962;51.312;7.378;2023-01-30T06:50:29;97308.81;;;3.36;100.00
5872;BME280;2962;51.312;7.378;2023-01-30T06:52:55;97294.88;;;3.34;100.00
5872;BME280;2962;51.312;7.378;2023-01-30T06:55:22;97318.25;;;3.51;100.00
5872;BME280;2962;51.312;7.378;2023-01-30T06:57:49;97323.81;;;3.46;100.00
5872;BME280;2962;51.312;7.378;2023-01-30T07:00:18;97314.63;;;3.47;100.00
5872;BME280;2962;51.312;7.378;2023-01-30T07:02:45;97298.47;;;3.47;100.00
5872;BME280;2962;51.312;7.378;2023-01-30T07:05:11;97332.38;;;3.48;100.00
5872;BME280;2962;51.312;7.378;2023-01-30T07:07:37;97310.00;;;3.56;100.00
5872;BME280;2962;51.312;7.378;2023-01-30T07:10:03;97314.38;;;3.60;100.00
5872;BME280;2962;51.312;7.378;2023-01-30T07:12:29;97305.53;;;3.60;100.00
5872;BME280;2962;51.312;7.378;2023-01-30T07:14:54;97312.03;;;3.59;100.00
5872;BME280;2962;51.312;7.378;2023-01-30T07:17:22;97296.66;;;3.59;100.00
5872;BME280;2962;51.312;7.378;2023-01-30T07:19:48;97320.13;;;3.59;100.00
5872;BME280;2962;51.312;7.378;2023-01-30T07:22:13;97299.00;;;3.61;100.00
5872;BME280;2962;51.312;7.378;2023-01-30T07:24:39;97298.44;;;3.55;100.00
5872;BME280;2962;51.312;7.378;2023-01-30T07:27:09;97306.44;;;3.64;100.00
5872;BME280;2962;51.312;7.378;2023-01-30T07:29:35;97299.63;;;3.66;100.00
5872;BME280;2962;51.312;7.378;2023-01-30T07:32:01;97287.28;;;3.65;100.00
5872;BME280;2962;51.312;7.378;2023-01-30T07:34:27;97297.06;;;3.70;100.00
5872;BME280;2962;51.312;7.378;2023-01-30T07:36:52;97295.63;;;3.73;100.00
5872;BME280;2962;51.312;7.378;2023-01-30T07:39:17;97297.88;;;3.71;100.00
5872;BME280;2962;51.312;7.378;2023-01-30T07:41:43;97306.28;;;3.69;100.00
5872;BME280;2962;51.312;7.378;2023-01-30T07:44:08;97303.59;;;3.69;100.00
5872;BME280;2962;51.312;7.378;2023-01-30T07:46:33;97313.69;;;3.72;100.00
5872;BME280;2962;51.312;7.378;2023-01-30T07:49:00;97311.66;;;3.69;100.00
5872;BME280;2962;51.312;7.378;2023-01-30T07:51:26;97319.06;;;3.72;100.00
5872;BME280;2962;51.312;7.378;2023-01-30T07:53:51;97308.72;;;3.53;100.00
5872;BME280;2962;51.312;7.378;2023-01-30T07:56:17;97293.09;;;3.47;100.00
5872;BME280;2962;51.312;7.378;2023-01-30T07:58:44;97321.03;;;3.63;100.00
5872;BME280;2962;51.312;7.378;2023-01-30T08:01:09;97324.38;;;3.60;100.00
5872;BME280;2962;51.312;7.378;2023-01-30T08:03:34;97325.94;;;3.61;100.00
5872;BME280;2962;51.312;7.378;2023-01-30T08:05:59;97339.56;;;3.64;100.00
5872;BME280;2962;51.312;7.378;2023-01-30T08:08:25;97344.72;;;3.78;100.00
5872;BME280;2962;51.312;7.378;2023-01-30T08:10:50;97341.75;;;3.71;100.00
5872;BME280;2962;51.312;7.378;2023-01-30T08:13:15;97330.69;;;3.64;100.00
5872;BME280;2962;51.312;7.378;2023-01-30T08:15:41;97328.06;;;3.55;100.00
5872;BME280;2962;51.312;7.378;2023-01-30T08:18:06;97319.34;;;3.50;100.00
5872;BME280;2962;51.312;7.378;2023-01-30T08:20:32;97335.81;;;3.57;100.00
5872;BME280;2962;51.312;7.378;2023-01-30T08:22:58;97350.41;;;3.56;100.00
5872;BME280;2962;51.312;7.378;2023-01-30T08:25:23;97336.63;;;3.49;100.00
5872;BME280;2962;51.312;7.378;2023-01-30T08:27:49;97368.13;;;3.57;100.00
5872;BME280;2962;51.312;7.378;2023-01-30T08:30:16;97347.25;;;3.54;100.00
5872;BME280;2962;51.312;7.378;2023-01-30T08:32:41;97352.59;;;3.62;100.00
5872;BME280;2962;51.312;7.378;2023-01-30T08:35:07;97342.59;;;3.63;100.00
5872;BME280;2962;51.312;7.378;2023-01-30T08:37:33;97346.88;;;3.64;100.00
5872;BME280;2962;51.312;7.378;2023-01-30T08:39:58;97356.00;;;3.72;100.00
5872;BME280;2962;51.312;7.378;2023-01-30T08:42:24;97359.97;;;3.74;100.00
5872;BME280;2962;51.312;7.378;2023-01-30T08:44:49;97351.03;;;3.82;100.00
5872;BME280;2962;51.312;7.378;2023-01-30T08:47:14;97361.63;;;3.87;100.00
5872;BME280;2962;51.312;7.378;2023-01-30T08:49:40;97361.34;;;3.80;100.00
5872;BME280;2962;51.312;7.378;2023-01-30T08:52:05;97385.28;;;3.82;100.00
5872;BME280;2962;51.312;7.378;2023-01-30T08:54:30;97356.91;;;3.84;100.00
5872;BME280;2962;51.312;7.378;2023-01-30T08:56:55;97355.59;;;3.90;100.00
5872;BME280;2962;51.312;7.378;2023-01-30T08:59:21;97341.47;;;3.94;100.00
5872;BME280;2962;51.312;7.378;2023-01-30T09:01:46;97336.00;;;3.81;100.00
5872;BME280;2962;51.312;7.378;2023-01-30T09:04:11;97331.53;;;3.85;100.00
5872;BME280;2962;51.312;7.378;2023-01-30T09:06:36;97322.84;;;3.80;100.00
5872;BME280;2962;51.312;7.378;2023-01-30T09:09:02;97338.84;;;3.85;100.00
5872;BME280;2962;51.312;7.378;2023-01-30T09:11:27;97346.50;;;3.74;100.00
5872;BME280;2962;51.312;7.378;2023-01-30T09:13:52;97322.91;;;3.71;100.00
5872;BME280;2962;51.312;7.378;2023-01-30T09:16:18;97335.53;;;3.79;100.00
5872;BME280;2962;51.312;7.378;2023-01-30T09:18:43;97311.00;;;3.72;100.00
5872;BME280;2962;51.312;7.378;2023-01-30T09:21:10;97359.78;;;3.79;100.00
5872;BME280;2962;51.312;7.378;2023-01-30T09:23:36;97327.31;;;3.76;100.00
5872;BME280;2962;51.312;7.378;2023-01-30T09:26:02;97345.50;;;3.79;100.00
5872;BME280;2962;51.312;7.378;2023-01-30T09:28:28;97338.56;;;3.78;100.00
5872;BME280;2962;51.312;7.378;2023-01-30T09:30:56;97344.53;;;3.83;100.00
5872;BME280;2962;51.312;7.378;2023-01-30T09:33:22;97358.56;;;3.98;100.00
5872;BME280;2962;51.312;7.378;2023-01-30T09:35:48;97348.38;;;4.03;100.00
5872;BME280;2962;51.312;7.378;2023-01-30T09:38:13;97356.50;;;3.95;100.00
5872;BME280;2962;51.312;7.378;2023-01-30T09:49:14;97363.53;;;3.87;100.00
5872;BME280;2962;51.312;7.378;2023-01-30T09:52:11;97357.63;;;3.94;100.00
5872;BME280;2962;51.312;7.378;2023-01-30T09:54:43;97365.44;;;3.86;100.00
5872;BME280;2962;51.312;7.378;2023-01-30T09:57:10;97372.09;;;3.89;100.00
5872;BME280;2962;51.312;7.378;2023-01-30T10:00:10;97372.59;;;3.82;100.00
5872;BME280;2962;51.312;7.378;2023-01-30T10:05:07;97372.88;;;3.89;100.00
5872;BME280;2962;51.312;7.378;2023-01-30T10:08:00;97387.22;;;3.73;100.00
5872;BME280;2962;51.312;7.378;2023-01-30T10:10:40;97385.78;;;3.75;100.00
5872;BME280;2962;51.312;7.378;2023-01-30T10:16:00;97408.94;;;4.06;100.00
5872;BME280;2962;51.312;7.378;2023-01-30T10:18:46;97409.13;;;4.01;100.00
5872;BME280;2962;51.312;7.378;2023-01-30T10:21:23;97396.03;;;3.90;100.00
5872;BME280;2962;51.312;7.378;2023-01-30T10:24:13;97420.78;;;3.84;100.00
5872;BME280;2962;51.312;7.378;2023-01-30T10:26:43;97400.28;;;3.91;100.00
5872;BME280;2962;51.312;7.378;2023-01-30T10:29:23;97384.81;;;3.80;100.00
5872;BME280;2962;51.312;7.378;2023-01-30T10:32:09;97399.06;;;3.80;100.00
5872;BME280;2962;51.312;7.378;2023-01-30T10:34:39;97403.38;;;3.81;100.00
5872;BME280;2962;51.312;7.378;2023-01-30T10:37:16;97396.25;;;3.77;100.00
5872;BME280;2962;51.312;7.378;2023-01-30T10:40:20;97414.50;;;3.71;100.00
5872;BME280;2962;51.312;7.378;2023-01-30T10:42:58;97393.88;;;3.75;100.00
5872;BME280;2962;51.312;7.378;2023-01-30T10:46:15;97401.66;;;3.77;100.00
5872;BME280;2962;51.312;7.378;2023-01-30T10:48:52;97392.13;;;3.79;100.00
5872;BME280;2962;51.312;7.378;2023-01-30T10:51:30;97386.88;;;3.83;100.00
5872;BME280;2962;51.312;7.378;2023-01-30T10:54:08;97384.13;;;3.91;100.00
5872;BME280;2962;51.312;7.378;2023-01-30T10:57:02;97381.16;;;3.84;100.00
5872;BME280;2962;51.312;7.378;2023-01-30T11:00:00;97401.91;;;3.84;100.00
5872;BME280;2962;51.312;7.378;2023-01-30T11:03:02;97406.16;;;3.94;100.00
5872;BME280;2962;51.312;7.378;2023-01-30T11:05:40;97381.75;;;3.90;100.00
5872;BME280;2962;51.312;7.378;2023-01-30T11:08:17;97368.00;;;3.83;100.00
5872;BME280;2962;51.312;7.378;2023-01-30T11:10:43;97391.34;;;4.00;100.00
5872;BME280;2962;51.312;7.378;2023-01-30T11:13:16;97402.69;;;3.93;100.00
5872;BME280;2962;51.312;7.378;2023-01-30T11:15:44;97392.69;;;3.94;100.00
5872;BME280;2962;51.312;7.378;2023-01-30T11:18:11;97382.19;;;4.01;100.00
5872;BME280;2962;51.312;7.378;2023-01-30T11:20:42;97397.41;;;3.97;100.00
5872;BME280;2962;51.312;7.378;2023-01-30T11:23:38;97399.19;;;3.92;100.00
5872;BME280;2962;51.312;7.378;2023-01-30T11:26:04;97382.88;;;3.89;100.00
5872;BME280;2962;51.312;7.378;2023-01-30T11:28:41;97407.41;;;3.96;100.00
5872;BME280;2962;51.312;7.378;2023-01-30T11:31:19;97400.41;;;4.04;100.00
5872;BME280;2962;51.312;7.378;2023-01-30T11:33:58;97410.22;;;4.00;100.00
5872;BME280;2962;51.312;7.378;2023-01-30T11:36:33;97395.19;;;3.99;100.00
5872;BME280;2962;51.312;7.378;2023-01-30T11:39:00;97414.38;;;3.97;100.00
5872;BME280;2962;51.312;7.378;2023-01-30T11:41:26;97400.56;;;3.99;100.00
5872;BME280;2962;51.312;7.378;2023-01-30T11:43:59;97397.09;;;3.98;100.00
5872;BME280;2962;51.312;7.378;2023-01-30T11:46:28;97413.34;;;4.10;100.00
5872;BME280;2962;51.312;7.378;2023-01-30T11:49:00;97407.91;;;4.19;100.00
5872;BME280;2962;51.312;7.378;2023-01-30T11:51:28;97390.69;;;4.11;100.00
5872;BME280;2962;51.312;7.378;2023-01-30T11:53:56;97398.06;;;4.23;100.00
5872;BME280;2962;51.312;7.378;2023-01-30T11:56:35;97403.25;;;4.28;100.00
5872;BME280;2962;51.312;7.378;2023-01-30T11:59:29;97387.06;;;4.28;100.00
5872;BME280;2962;51.312;7.378;2023-01-30T12:02:03;97387.06;;;4.28;100.00
5872;BME280;2962;51.312;7.378;2023-01-30T12:04:30;97391.47;;;4.33;100.00
5872;BME280;2962;51.312;7.378;2023-01-30T12:07:16;97406.94;;;4.24;100.00
5872;BME280;2962;51.312;7.378;2023-01-30T12:09:41;97400.47;;;4.16;100.00
5872;BME280;2962;51.312;7.378;2023-01-30T12:12:34;97401.53;;;4.24;100.00
5872;BME280;2962;51.312;7.378;2023-01-30T12:15:16;97396.41;;;4.31;100.00
5872;BME280;2962;51.312;7.378;2023-01-30T12:18:09;97392.81;;;3.97;100.00
5872;BME280;2962;51.312;7.378;2023-01-30T12:21:02;97404.47;;;3.80;100.00
5872;BME280;2962;51.312;7.378;2023-01-30T12:23:47;97415.72;;;3.82;100.00
5872;BME280;2962;51.312;7.378;2023-01-30T12:26:25;97421.72;;;3.88;100.00
5872;BME280;2962;51.312;7.378;2023-01-30T12:29:30;97420.56;;;3.98;100.00
5872;BME280;2962;51.312;7.378;2023-01-30T12:32:05;97413.59;;;3.97;100.00
5872;BME280;2962;51.312;7.378;2023-01-30T12:34:31;97414.03;;;3.99;100.00
5872;BME280;2962;51.312;7.378;2023-01-30T12:37:39;97407.66;;;4.12;100.00
5872;BME280;2962;51.312;7.378;2023-01-30T12:40:47;97410.84;;;4.26;100.00
5872;BME280;2962;51.312;7.378;2023-01-30T12:45:46;97408.78;;;4.32;100.00
5872;BME280;2962;51.312;7.378;2023-01-30T12:48:37;97422.84;;;4.37;100.00
5872;BME280;2962;51.312;7.378;2023-01-30T13:01:55;97436.16;;;4.43;100.00
5872;BME280;2962;51.312;7.378;2023-01-30T13:07:29;97439.13;;;4.71;100.00
5872;BME280;2962;51.312;7.378;2023-01-30T13:10:51;97434.25;;;4.85;100.00
5872;BME280;2962;51.312;7.378;2023-01-30T13:16:05;97416.56;;;4.54;100.00
5872;BME280;2962;51.312;7.378;2023-01-30T13:18:56;97421.88;;;4.63;100.00
5872;BME280;2962;51.312;7.378;2023-01-30T13:24:29;97447.81;;;4.55;100.00
5872;BME280;2962;51.312;7.378;2023-01-30T13:26:57;97445.09;;;4.55;100.00
5872;BME280;2962;51.312;7.378;2023-01-30T13:29:29;97447.66;;;4.52;100.00
5872;BME280;2962;51.312;7.378;2023-01-30T13:31:58;97452.06;;;4.56;100.00
5872;BME280;2962;51.312;7.378;2023-01-30T13:34:34;97465.25;;;4.58;100.00
5872;BME280;2962;51.312;7.378;2023-01-30T13:37:05;97451.56;;;4.63;100.00
5872;BME280;2962;51.312;7.378;2023-01-30T13:39:37;97459.00;;;4.66;100.00
5872;BME280;2962;51.312;7.378;2023-01-30T13:42:07;97462.47;;;4.67;100.00
5872;BME280;2962;51.312;7.378;2023-01-30T13:44:37;97458.44;;;4.73;100.00
5872;BME280;2962;51.312;7.378;2023-01-30T13:47:13;97451.81;;;4.70;100.00
5872;BME280;2962;51.312;7.378;2023-01-30T13:52:59;97469.72;;;4.75;100.00
5872;BME280;2962;51.312;7.378;2023-01-30T13:55:33;97513.91;;;4.70;100.00
5872;BME280;2962;51.312;7.378;2023-01-30T14:01:12;97483.00;;;4.80;100.00
5872;BME280;2962;51.312;7.378;2023-01-30T14:03:41;97474.53;;;4.90;100.00
5872;BME280;2962;51.312;7.378;2023-01-30T14:06:37;97479.97;;;5.02;100.00
5872;BME280;2962;51.312;7.378;2023-01-30T14:09:24;97472.00;;;5.06;100.00
5872;BME280;2962;51.312;7.378;2023-01-30T14:11:56;97479.84;;;5.20;100.00
5872;BME280;2962;51.312;7.378;2023-01-30T14:14:34;97487.94;;;5.20;100.00
5872;BME280;2962;51.312;7.378;2023-01-30T14:17:15;97478.50;;;5.26;100.00
5872;BME280;2962;51.312;7.378;2023-01-30T14:19:57;97504.34;;;5.14;100.00
5872;BME280;2962;51.312;7.378;2023-01-30T14:22:25;97525.16;;;5.14;100.00
5872;BME280;2962;51.312;7.378;2023-01-30T14:27:53;97513.31;;;4.85;100.00
5872;BME280;2962;51.312;7.378;2023-01-30T14:31:01;97527.47;;;4.82;100.00
5872;BME280;2962;51.312;7.378;2023-01-30T14:38:37;97529.38;;;4.82;100.00
5872;BME280;2962;51.312;7.378;2023-01-30T14:43:45;97539.75;;;4.71;100.00
5872;BME280;2962;51.312;7.378;2023-01-30T14:46:37;97534.84;;;4.73;100.00
5872;BME280;2962;51.312;7.378;2023-01-30T14:49:17;97534.84;;;4.73;100.00
5872;BME280;2962;51.312;7.378;2023-01-30T14:59:28;97558.72;;;4.62;100.00
5872;BME280;2962;51.312;7.378;2023-01-30T15:02:08;97560.28;;;4.63;100.00
5872;BME280;2962;51.312;7.378;2023-01-30T15:04:58;97576.63;;;4.67;100.00
5872;BME280;2962;51.312;7.378;2023-01-30T15:21:52;97573.91;;;4.67;100.00
5872;BME280;2962;51.312;7.378;2023-01-30T15:25:00;97597.69;;;4.74;100.00
5872;BME280;2962;51.312;7.378;2023-01-30T15:28:04;97613.75;;;4.70;100.00
5872;BME280;2962;51.312;7.378;2023-01-30T15:30:47;97607.59;;;4.61;100.00
5872;BME280;2962;51.312;7.378;2023-01-30T15:33:21;97617.19;;;4.50;100.00
5872;BME280;2962;51.312;7.378;2023-01-30T15:35:48;97612.88;;;4.49;100.00
5872;BME280;2962;51.312;7.378;2023-01-30T15:38:30;97629.06;;;4.49;100.00
5872;BME280;2962;51.312;7.378;2023-01-30T15:41:04;97641.47;;;4.50;100.00